CYQM

Greater Moncton International Airport

Moncton, New Brunswick, Canada
METAR CYQM 222122Z 27010G18KT 15SM FEW054 02/M08 A2999 RMK SC2 SLP160
Observed Flight Rules
Oct-22 @ 21:22 UTC (29 minutes ago) Visual Flight Rules
Wind Visibility Clouds
270° at 10 knots
 Gusting to 18 knots
15 miles
  • Few at 5,400' AGL
Temperatures Readings
Current 2°C / 36°F
Dewpoint -8°C / 18°F
Humidity 48%
Altimeter 29.99" Hg
Pressure 1016 hPa
Elevation 71
METAR CYQM 222122Z 27010G18KT 15SM FEW054 02/M08 A2999 RMK SC2 SLP160
Observed Flight Rules
Oct-22 @ 21:22 UTC
(29 minutes ago)
VFR
Wind Visibility
270° at 10 knots
 Gusting to 18 knots
15 miles
Clouds
  • Few at 5,400' AGL
Temperature Dewpoint
2°C / 36°F -8°C / 18°F
Humidity Altimeter Pressure
48% 29.99" Hg 1016 hPa